sensor_id;sensor_type;location;lat;lon;timestamp;pressure;altitude;pressure_sealevel;temperature;humidity
45864;BME280;31579;52.354;16.974;2023-03-18T00:00:42;-27.9;;;-146.1;100.0
45864;BME280;31579;52.354;16.974;2023-03-18T00:01:46;-28.6;;;-146.1;100.0
45864;BME280;31579;52.354;16.974;2023-03-18T00:02:50;-26.8;;;-146.1;100.0
45864;BME280;31579;52.354;16.974;2023-03-18T00:03:54;-26.0;;;-146.1;100.0
45864;BME280;31579;52.354;16.974;2023-03-18T00:04:58;-23.2;;;-146.1;100.0
45864;BME280;31579;52.354;16.974;2023-03-18T00:07:09;-9.5;;;-146.1;100.0
45864;BME280;31579;52.354;16.974;2023-03-18T00:08:14;-18.2;;;-146.1;100.0
45864;BME280;31579;52.354;16.974;2023-03-18T00:09:18;-17.4;;;-146.1;100.0
45864;BME280;31579;52.354;16.974;2023-03-18T00:10:22;-16.8;;;-146.1;100.0
45864;BME280;31579;52.354;16.974;2023-03-18T00:11:27;-17.8;;;-146.1;100.0
45864;BME280;31579;52.354;16.974;2023-03-18T00:12:31;-17.3;;;-146.1;100.0
45864;BME280;31579;52.354;16.974;2023-03-18T00:13:35;-16.4;;;-146.1;100.0
45864;BME280;31579;52.354;16.974;2023-03-18T00:14:39;-16.2;;;-146.1;100.0
45864;BME280;31579;52.354;16.974;2023-03-18T00:15:43;-15.6;;;-146.1;100.0
45864;BME280;31579;52.354;16.974;2023-03-18T00:16:47;-16.6;;;-146.1;100.0
45864;BME280;31579;52.354;16.974;2023-03-18T00:17:51;-15.7;;;-146.1;100.0
45864;BME280;31579;52.354;16.974;2023-03-18T00:18:55;-15.1;;;-146.1;100.0
45864;BME280;31579;52.354;16.974;2023-03-18T00:19:59;-15.3;;;-146.1;100.0
45864;BME280;31579;52.354;16.974;2023-03-18T00:21:09;-8.7;;;-146.1;100.0
45864;BME280;31579;52.354;16.974;2023-03-18T00:22:13;-14.0;;;-146.1;100.0
45864;BME280;31579;52.354;16.974;2023-03-18T00:23:17;-15.5;;;-146.1;100.0
45864;BME280;31579;52.354;16.974;2023-03-18T00:24:21;-17.7;;;-146.1;100.0
45864;BME280;31579;52.354;16.974;2023-03-18T00:25:24;-23.8;;;-146.1;100.0
45864;BME280;31579;52.354;16.974;2023-03-18T00:26:28;-20.1;;;-146.1;100.0
45864;BME280;31579;52.354;16.974;2023-03-18T00:27:32;-21.1;;;-146.1;100.0
45864;BME280;31579;52.354;16.974;2023-03-18T00:28:36;-23.2;;;-146.1;100.0
45864;BME280;31579;52.354;16.974;2023-03-18T00:29:39;-29.6;;;-146.1;100.0
45864;BME280;31579;52.354;16.974;2023-03-18T00:30:43;-26.2;;;-146.1;100.0
45864;BME280;31579;52.354;16.974;2023-03-18T00:31:47;-27.5;;;-146.1;100.0
45864;BME280;31579;52.354;16.974;2023-03-18T00:32:51;-26.7;;;-146.1;100.0
45864;BME280;31579;52.354;16.974;2023-03-18T00:33:55;-26.5;;;-146.1;100.0
45864;BME280;31579;52.354;16.974;2023-03-18T00:34:59;-26.1;;;-146.1;100.0
45864;BME280;31579;52.354;16.974;2023-03-18T00:36:01;-38.6;;;-146.1;100.0
45864;BME280;31579;52.354;16.974;2023-03-18T00:37:06;-32.5;;;-146.1;100.0
45864;BME280;31579;52.354;16.974;2023-03-18T00:38:10;-38.4;;;-146.1;100.0
45864;BME280;31579;52.354;16.974;2023-03-18T00:39:14;-36.5;;;-146.1;100.0
45864;BME280;31579;52.354;16.974;2023-03-18T00:40:17;-41.7;;;-146.1;100.0
45864;BME280;31579;52.354;16.974;2023-03-18T00:41:20;-43.1;;;-146.1;100.0
45864;BME280;31579;52.354;16.974;2023-03-18T00:42:24;-38.8;;;-146.1;100.0
45864;BME280;31579;52.354;16.974;2023-03-18T00:43:28;-39.9;;;-146.1;100.0
45864;BME280;31579;52.354;16.974;2023-03-18T00:44:32;-40.4;;;-146.1;100.0
45864;BME280;31579;52.354;16.974;2023-03-18T00:45:36;-41.1;;;-146.1;100.0
45864;BME280;31579;52.354;16.974;2023-03-18T00:46:40;-41.3;;;-146.1;100.0
45864;BME280;31579;52.354;16.974;2023-03-18T00:47:44;-42.4;;;-146.1;100.0
45864;BME280;31579;52.354;16.974;2023-03-18T00:48:48;-47.8;;;-146.1;100.0
45864;BME280;31579;52.354;16.974;2023-03-18T00:49:52;-43.4;;;-146.1;100.0
45864;BME280;31579;52.354;16.974;2023-03-18T00:50:56;-45.0;;;-146.1;100.0
45864;BME280;31579;52.354;16.974;2023-03-18T00:52:00;-45.9;;;-146.1;100.0
45864;BME280;31579;52.354;16.974;2023-03-18T00:53:03;-50.0;;;-146.1;100.0
45864;BME280;31579;52.354;16.974;2023-03-18T00:54:06;-58.5;;;-146.1;100.0
45864;BME280;31579;52.354;16.974;2023-03-18T00:55:09;-51.2;;;-146.1;100.0
45864;BME280;31579;52.354;16.974;2023-03-18T00:56:13;-51.6;;;-146.1;100.0
45864;BME280;31579;52.354;16.974;2023-03-18T00:57:18;-53.9;;;-146.1;100.0
45864;BME280;31579;52.354;16.974;2023-03-18T00:58:22;-54.6;;;-146.1;100.0
45864;BME280;31579;52.354;16.974;2023-03-18T00:59:26;-55.4;;;-146.1;100.0
45864;BME280;31579;52.354;16.974;2023-03-18T01:00:30;-55.9;;;-146.1;100.0
45864;BME280;31579;52.354;16.974;2023-03-18T01:01:35;-55.5;;;-146.1;100.0
45864;BME280;31579;52.354;16.974;2023-03-18T01:02:39;-55.3;;;-146.1;100.0
45864;BME280;31579;52.354;16.974;2023-03-18T01:03:43;-55.0;;;-146.1;100.0
45864;BME280;31579;52.354;16.974;2023-03-18T01:04:47;-54.9;;;-146.1;100.0
45864;BME280;31579;52.354;16.974;2023-03-18T01:05:51;-53.8;;;-146.1;100.0
45864;BME280;31579;52.354;16.974;2023-03-18T01:06:55;-55.4;;;-146.1;100.0
45864;BME280;31579;52.354;16.974;2023-03-18T01:07:58;-60.0;;;-146.1;100.0
45864;BME280;31579;52.354;16.974;2023-03-18T01:09:02;-57.1;;;-146.1;100.0
45864;BME280;31579;52.354;16.974;2023-03-18T01:10:05;-60.8;;;-146.1;100.0
45864;BME280;31579;52.354;16.974;2023-03-18T01:11:09;-57.3;;;-146.1;100.0
45864;BME280;31579;52.354;16.974;2023-03-18T01:12:14;-56.9;;;-146.1;100.0
45864;BME280;31579;52.354;16.974;2023-03-18T01:13:17;-59.9;;;-146.1;100.0
45864;BME280;31579;52.354;16.974;2023-03-18T01:14:21;-56.2;;;-146.1;100.0
45864;BME280;31579;52.354;16.974;2023-03-18T01:15:25;-58.7;;;-146.1;100.0
45864;BME280;31579;52.354;16.974;2023-03-18T01:16:29;-56.0;;;-146.1;100.0
45864;BME280;31579;52.354;16.974;2023-03-18T01:17:33;-56.6;;;-146.1;100.0
45864;BME280;31579;52.354;16.974;2023-03-18T01:18:37;-56.2;;;-146.1;100.0
45864;BME280;31579;52.354;16.974;2023-03-18T01:19:41;-55.0;;;-146.1;100.0
45864;BME280;31579;52.354;16.974;2023-03-18T01:20:45;-54.0;;;-146.1;100.0
45864;BME280;31579;52.354;16.974;2023-03-18T01:21:49;-53.9;;;-146.1;100.0
45864;BME280;31579;52.354;16.974;2023-03-18T01:22:53;-52.2;;;-146.1;100.0
45864;BME280;31579;52.354;16.974;2023-03-18T01:23:57;-52.0;;;-146.1;100.0
45864;BME280;31579;52.354;16.974;2023-03-18T01:25:01;-51.3;;;-146.1;100.0
45864;BME280;31579;52.354;16.974;2023-03-18T01:26:04;-58.9;;;-146.1;100.0
45864;BME280;31579;52.354;16.974;2023-03-18T01:27:07;-55.5;;;-146.1;100.0
45864;BME280;31579;52.354;16.974;2023-03-18T01:28:11;-53.0;;;-146.1;100.0
45864;BME280;31579;52.354;16.974;2023-03-18T01:29:16;-54.6;;;-146.1;100.0
45864;BME280;31579;52.354;16.974;2023-03-18T01:30:20;-55.9;;;-146.1;100.0
45864;BME280;31579;52.354;16.974;2023-03-18T01:31:24;-55.1;;;-146.1;100.0
45864;BME280;31579;52.354;16.974;2023-03-18T01:32:28;-56.2;;;-146.1;100.0
45864;BME280;31579;52.354;16.974;2023-03-18T01:33:31;-59.9;;;-146.1;100.0
45864;BME280;31579;52.354;16.974;2023-03-18T01:34:35;-56.8;;;-146.1;100.0
45864;BME280;31579;52.354;16.974;2023-03-18T01:35:39;-57.4;;;-146.1;100.0
45864;BME280;31579;52.354;16.974;2023-03-18T01:36:43;-57.9;;;-146.1;100.0
45864;BME280;31579;52.354;16.974;2023-03-18T01:37:47;-59.2;;;-146.1;100.0
45864;BME280;31579;52.354;16.974;2023-03-18T01:38:50;-63.8;;;-146.1;100.0
45864;BME280;31579;52.354;16.974;2023-03-18T01:39:54;-61.4;;;-146.1;100.0
45864;BME280;31579;52.354;16.974;2023-03-18T01:40:58;-61.2;;;-146.1;100.0
45864;BME280;31579;52.354;16.974;2023-03-18T01:42:02;-61.5;;;-146.1;100.0
45864;BME280;31579;52.354;16.974;2023-03-18T01:44:11;-63.5;;;-146.1;100.0
45864;BME280;31579;52.354;16.974;2023-03-18T01:45:28;-56.8;;;-146.1;100.0
45864;BME280;31579;52.354;16.974;2023-03-18T01:46:32;-57.2;;;-146.1;100.0
45864;BME280;31579;52.354;16.974;2023-03-18T01:47:35;-57.6;;;-146.1;100.0
45864;BME280;31579;52.354;16.974;2023-03-18T01:48:40;-58.6;;;-146.1;100.0
45864;BME280;31579;52.354;16.974;2023-03-18T01:49:45;-60.6;;;-146.1;100.0
45864;BME280;31579;52.354;16.974;2023-03-18T01:51:04;-59.8;;;-146.1;100.0
45864;BME280;31579;52.354;16.974;2023-03-18T01:52:10;-60.0;;;-146.1;100.0
45864;BME280;31579;52.354;16.974;2023-03-18T01:53:11;-64.3;;;-146.1;100.0
45864;BME280;31579;52.354;16.974;2023-03-18T01:54:14;-61.5;;;-146.1;100.0
45864;BME280;31579;52.354;16.974;2023-03-18T01:55:19;-61.9;;;-146.1;100.0
45864;BME280;31579;52.354;16.974;2023-03-18T01:56:22;-61.4;;;-146.1;100.0
45864;BME280;31579;52.354;16.974;2023-03-18T01:57:26;-61.2;;;-146.1;100.0
45864;BME280;31579;52.354;16.974;2023-03-18T01:58:33;-59.9;;;-146.1;100.0
45864;BME280;31579;52.354;16.974;2023-03-18T01:59:38;-59.9;;;-146.1;100.0
45864;BME280;31579;52.354;16.974;2023-03-18T02:00:40;-60.3;;;-146.1;100.0
45864;BME280;31579;52.354;16.974;2023-03-18T02:02:48;-62.7;;;-146.1;100.0
45864;BME280;31579;52.354;16.974;2023-03-18T02:03:52;-62.0;;;-146.1;100.0
45864;BME280;31579;52.354;16.974;2023-03-18T02:04:57;-63.9;;;-146.1;100.0
45864;BME280;31579;52.354;16.974;2023-03-18T02:05:58;-68.5;;;-146.1;100.0
45864;BME280;31579;52.354;16.974;2023-03-18T02:07:00;-73.9;;;-146.1;100.0
45864;BME280;31579;52.354;16.974;2023-03-18T02:08:03;-72.3;;;-146.1;100.0
45864;BME280;31579;52.354;16.974;2023-03-18T02:09:07;-70.8;;;-146.1;100.0
45864;BME280;31579;52.354;16.974;2023-03-18T02:10:16;-72.8;;;-146.1;100.0
45864;BME280;31579;52.354;16.974;2023-03-18T02:11:15;-72.8;;;-146.1;100.0
45864;BME280;31579;52.354;16.974;2023-03-18T02:12:33;-72.7;;;-146.1;100.0
45864;BME280;31579;52.354;16.974;2023-03-18T02:13:23;-73.1;;;-146.1;100.0
45864;BME280;31579;52.354;16.974;2023-03-18T02:14:27;-73.7;;;-146.1;100.0
45864;BME280;31579;52.354;16.974;2023-03-18T02:15:32;-73.4;;;-146.1;100.0
45864;BME280;31579;52.354;16.974;2023-03-18T02:16:39;-74.0;;;-146.1;100.0
45864;BME280;31579;52.354;16.974;2023-03-18T02:17:40;-74.3;;;-146.1;100.0
45864;BME280;31579;52.354;16.974;2023-03-18T02:18:44;-79.0;;;-146.1;100.0
45864;BME280;31579;52.354;16.974;2023-03-18T02:20:57;-79.2;;;-146.1;100.0
45864;BME280;31579;52.354;16.974;2023-03-18T02:21:57;-81.8;;;-146.1;100.0
45864;BME280;31579;52.354;16.974;2023-03-18T02:23:04;-80.6;;;-146.1;100.0
45864;BME280;31579;52.354;16.974;2023-03-18T02:24:04;-83.3;;;-146.1;100.0
45864;BME280;31579;52.354;16.974;2023-03-18T02:26:09;-84.4;;;-146.1;100.0
45864;BME280;31579;52.354;16.974;2023-03-18T02:28:16;-84.3;;;-146.1;100.0
45864;BME280;31579;52.354;16.974;2023-03-18T02:29:18;-85.2;;;-146.1;100.0
45864;BME280;31579;52.354;16.974;2023-03-18T02:31:24;-86.1;;;-146.1;100.0
45864;BME280;31579;52.354;16.974;2023-03-18T02:32:29;-90.5;;;-146.1;100.0
45864;BME280;31579;52.354;16.974;2023-03-18T02:33:34;-92.2;;;-146.1;100.0
45864;BME280;31579;52.354;16.974;2023-03-18T02:34:35;-92.9;;;-146.1;100.0
45864;BME280;31579;52.354;16.974;2023-03-18T02:35:38;-91.9;;;-146.1;100.0
45864;BME280;31579;52.354;16.974;2023-03-18T02:36:42;-94.9;;;-146.1;100.0
45864;BME280;31579;52.354;16.974;2023-03-18T02:37:44;-94.8;;;-146.1;100.0
45864;BME280;31579;52.354;16.974;2023-03-18T02:38:47;-95.2;;;-146.1;100.0
45864;BME280;31579;52.354;16.974;2023-03-18T02:39:51;-93.1;;;-146.1;100.0
45864;BME280;31579;52.354;16.974;2023-03-18T02:40:55;-92.7;;;-146.1;100.0
45864;BME280;31579;52.354;16.974;2023-03-18T02:42:00;-93.1;;;-146.1;100.0
45864;BME280;31579;52.354;16.974;2023-03-18T02:44:05;-95.1;;;-146.1;100.0
45864;BME280;31579;52.354;16.974;2023-03-18T02:45:11;-95.9;;;-146.1;100.0
45864;BME280;31579;52.354;16.974;2023-03-18T02:47:16;-98.2;;;-146.1;100.0
45864;BME280;31579;52.354;16.974;2023-03-18T02:48:18;-98.9;;;-146.1;100.0
45864;BME280;31579;52.354;16.974;2023-03-18T02:49:21;-99.4;;;-146.1;100.0
45864;BME280;31579;52.354;16.974;2023-03-18T02:50:23;-99.6;;;-146.1;100.0
45864;BME280;31579;52.354;16.974;2023-03-18T02:51:27;-99.8;;;-146.1;100.0
45864;BME280;31579;52.354;16.974;2023-03-18T02:52:29;-99.8;;;-146.1;100.0
45864;BME280;31579;52.354;16.974;2023-03-18T02:53:33;-99.9;;;-146.1;100.0
45864;BME280;31579;52.354;16.974;2023-03-18T02:54:35;-99.8;;;-146.1;100.0
45864;BME280;31579;52.354;16.974;2023-03-18T02:55:38;-100.4;;;-146.1;100.0
45864;BME280;31579;52.354;16.974;2023-03-18T02:56:42;-101.0;;;-146.1;100.0
45864;BME280;31579;52.354;16.974;2023-03-18T02:57:44;-101.0;;;-146.1;100.0
45864;BME280;31579;52.354;16.974;2023-03-18T02:58:48;-101.1;;;-146.1;100.0
45864;BME280;31579;52.354;16.974;2023-03-18T02:59:50;-101.7;;;-146.1;100.0
45864;BME280;31579;52.354;16.974;2023-03-18T03:00:54;-99.8;;;-146.1;100.0
45864;BME280;31579;52.354;16.974;2023-03-18T03:01:59;-100.1;;;-146.1;100.0
45864;BME280;31579;52.354;16.974;2023-03-18T03:03:03;-101.7;;;-146.1;100.0
45864;BME280;31579;52.354;16.974;2023-03-18T03:04:06;-102.3;;;-146.1;100.0
45864;BME280;31579;52.354;16.974;2023-03-18T03:05:09;-103.0;;;-146.1;100.0
45864;BME280;31579;52.354;16.974;2023-03-18T03:06:12;-103.9;;;-146.1;100.0
45864;BME280;31579;52.354;16.974;2023-03-18T03:07:14;-104.3;;;-146.1;100.0
45864;BME280;31579;52.354;16.974;2023-03-18T03:08:17;-105.2;;;-146.1;100.0
45864;BME280;31579;52.354;16.974;2023-03-18T03:09:36;-102.9;;;-146.1;100.0
45864;BME280;31579;52.354;16.974;2023-03-18T03:10:39;-104.0;;;-146.1;100.0
45864;BME280;31579;52.354;16.974;2023-03-18T03:11:43;-102.9;;;-146.1;100.0
45864;BME280;31579;52.354;16.974;2023-03-18T03:12:47;-104.3;;;-146.1;100.0
45864;BME280;31579;52.354;16.974;2023-03-18T03:13:50;-104.2;;;-146.1;100.0
45864;BME280;31579;52.354;16.974;2023-03-18T03:14:53;-104.3;;;-146.1;100.0
45864;BME280;31579;52.354;16.974;2023-03-18T03:15:56;-105.0;;;-146.1;100.0
45864;BME280;31579;52.354;16.974;2023-03-18T03:16:59;-105.2;;;-146.1;100.0
45864;BME280;31579;52.354;16.974;2023-03-18T03:18:02;-105.5;;;-146.1;100.0
45864;BME280;31579;52.354;16.974;2023-03-18T03:19:05;-106.0;;;-146.1;100.0
45864;BME280;31579;52.354;16.974;2023-03-18T03:20:09;-106.6;;;-146.1;100.0
45864;BME280;31579;52.354;16.974;2023-03-18T03:21:12;-107.4;;;-146.1;100.0
45864;BME280;31579;52.354;16.974;2023-03-18T03:22:15;-108.1;;;-146.1;100.0
45864;BME280;31579;52.354;16.974;2023-03-18T03:23:18;-108.5;;;-146.1;100.0
45864;BME280;31579;52.354;16.974;2023-03-18T03:24:21;-109.0;;;-146.1;100.0
45864;BME280;31579;52.354;16.974;2023-03-18T03:25:25;-106.8;;;-146.1;100.0
45864;BME280;31579;52.354;16.974;2023-03-18T03:26:28;-107.2;;;-146.1;100.0
45864;BME280;31579;52.354;16.974;2023-03-18T03:27:33;-105.4;;;-146.1;100.0
45864;BME280;31579;52.354;16.974;2023-03-18T03:28:36;-106.7;;;-146.1;100.0
45864;BME280;31579;52.354;16.974;2023-03-18T03:29:39;-106.3;;;-146.1;100.0
45864;BME280;31579;52.354;16.974;2023-03-18T03:30:42;-105.7;;;-146.1;100.0
45864;BME280;31579;52.354;16.974;2023-03-18T03:31:45;-105.0;;;-146.1;100.0
45864;BME280;31579;52.354;16.974;2023-03-18T03:32:49;-102.6;;;-146.1;100.0
45864;BME280;31579;52.354;16.974;2023-03-18T03:33:53;-101.4;;;-146.1;100.0
45864;BME280;31579;52.354;16.974;2023-03-18T03:34:56;-101.3;;;-146.1;100.0
45864;BME280;31579;52.354;16.974;2023-03-18T03:35:59;-100.5;;;-146.1;100.0
45864;BME280;31579;52.354;16.974;2023-03-18T03:37:03;-98.0;;;-146.1;100.0
45864;BME280;31579;52.354;16.974;2023-03-18T03:38:06;-98.6;;;-146.1;100.0
45864;BME280;31579;52.354;16.974;2023-03-18T03:39:10;-96.2;;;-146.1;100.0
45864;BME280;31579;52.354;16.974;2023-03-18T03:40:14;-97.1;;;-146.1;100.0
45864;BME280;31579;52.354;16.974;2023-03-18T03:41:16;-96.4;;;-146.1;100.0
45864;BME280;31579;52.354;16.974;2023-03-18T03:42:19;-95.7;;;-146.1;100.0
45864;BME280;31579;52.354;16.974;2023-03-18T03:43:22;-94.9;;;-146.1;100.0
45864;BME280;31579;52.354;16.974;2023-03-18T03:44:25;-94.1;;;-146.1;100.0
45864;BME280;31579;52.354;16.974;2023-03-18T03:45:28;-93.3;;;-146.1;100.0
45864;BME280;31579;52.354;16.974;2023-03-18T03:46:32;-90.6;;;-146.1;100.0
45864;BME280;31579;52.354;16.974;2023-03-18T03:47:36;-88.4;;;-146.1;100.0
45864;BME280;31579;52.354;16.974;2023-03-18T03:48:40;-87.7;;;-146.1;100.0
45864;BME280;31579;52.354;16.974;2023-03-18T03:49:43;-89.6;;;-146.1;100.0
45864;BME280;31579;52.354;16.974;2023-03-18T03:50:46;-89.2;;;-146.1;100.0
45864;BME280;31579;52.354;16.974;2023-03-18T03:51:49;-88.4;;;-146.1;100.0
45864;BME280;31579;52.354;16.974;2023-03-18T03:52:52;-87.9;;;-146.1;100.0
45864;BME280;31579;52.354;16.974;2023-03-18T03:53:56;-85.1;;;-146.1;100.0
45864;BME280;31579;52.354;16.974;2023-03-18T03:54:59;-86.5;;;-146.1;100.0
45864;BME280;31579;52.354;16.974;2023-03-18T03:56:03;-86.3;;;-146.1;100.0
45864;BME280;31579;52.354;16.974;2023-03-18T03:57:06;-86.0;;;-146.1;100.0
45864;BME280;31579;52.354;16.974;2023-03-18T03:58:09;-85.6;;;-146.1;100.0
45864;BME280;31579;52.354;16.974;2023-03-18T03:59:12;-85.2;;;-146.1;100.0
45864;BME280;31579;52.354;16.974;2023-03-18T04:00:17;-83.0;;;-146.1;100.0
45864;BME280;31579;52.354;16.974;2023-03-18T04:01:20;-84.0;;;-146.1;100.0
45864;BME280;31579;52.354;16.974;2023-03-18T04:02:23;-84.4;;;-146.1;100.0
45864;BME280;31579;52.354;16.974;2023-03-18T04:03:26;-84.3;;;-146.1;100.0
45864;BME280;31579;52.354;16.974;2023-03-18T04:04:29;-84.2;;;-146.1;100.0
45864;BME280;31579;52.354;16.974;2023-03-18T04:05:32;-84.1;;;-146.1;100.0
45864;BME280;31579;52.354;16.974;2023-03-18T04:06:35;-83.8;;;-146.1;100.0
45864;BME280;31579;52.354;16.974;2023-03-18T04:07:38;-84.1;;;-146.1;100.0
45864;BME280;31579;52.354;16.974;2023-03-18T04:08:41;-84.7;;;-146.1;100.0
45864;BME280;31579;52.354;16.974;2023-03-18T04:09:45;-85.1;;;-146.1;100.0
45864;BME280;31579;52.354;16.974;2023-03-18T04:10:48;-85.5;;;-146.1;100.0
45864;BME280;31579;52.354;16.974;2023-03-18T04:11:51;-86.0;;;-146.1;100.0
45864;BME280;31579;52.354;16.974;2023-03-18T04:12:54;-86.9;;;-146.1;100.0
45864;BME280;31579;52.354;16.974;2023-03-18T04:13:57;-88.9;;;-146.1;100.0
45864;BME280;31579;52.354;16.974;2023-03-18T04:15:01;-88.1;;;-146.1;100.0
45864;BME280;31579;52.354;16.974;2023-03-18T04:16:04;-90.9;;;-146.1;100.0
45864;BME280;31579;52.354;16.974;2023-03-18T04:17:07;-92.0;;;-146.1;100.0
45864;BME280;31579;52.354;16.974;2023-03-18T04:18:10;-92.9;;;-146.1;100.0
45864;BME280;31579;52.354;16.974;2023-03-18T04:19:13;-93.7;;;-146.1;100.0
45864;BME280;31579;52.354;16.974;2023-03-18T04:20:17;-94.1;;;-146.1;100.0
45864;BME280;31579;52.354;16.974;2023-03-18T04:21:20;-95.1;;;-146.1;100.0
45864;BME280;31579;52.354;16.974;2023-03-18T04:22:23;-96.3;;;-146.1;100.0
45864;BME280;31579;52.354;16.974;2023-03-18T04:23:26;-96.7;;;-146.1;100.0
45864;BME280;31579;52.354;16.974;2023-03-18T04:24:29;-97.6;;;-146.1;100.0
45864;BME280;31579;52.354;16.974;2023-03-18T04:25:32;-98.6;;;-146.1;100.0
45864;BME280;31579;52.354;16.974;2023-03-18T04:26:35;-98.7;;;-146.1;100.0
45864;BME280;31579;52.354;16.974;2023-03-18T04:27:38;-99.1;;;-146.1;100.0
45864;BME280;31579;52.354;16.974;2023-03-18T04:28:41;-99.9;;;-146.1;100.0
45864;BME280;31579;52.354;16.974;2023-03-18T04:29:45;-98.6;;;-146.1;100.0
45864;BME280;31579;52.354;16.974;2023-03-18T04:30:48;-100.1;;;-146.1;100.0
45864;BME280;31579;52.354;16.974;2023-03-18T04:31:52;-99.0;;;-146.1;100.0
45864;BME280;31579;52.354;16.974;2023-03-18T04:32:56;-98.8;;;-146.1;100.0
45864;BME280;31579;52.354;16.974;2023-03-18T04:34:00;-98.4;;;-146.1;100.0
45864;BME280;31579;52.354;16.974;2023-03-18T04:35:03;-99.7;;;-146.1;100.0
45864;BME280;31579;52.354;16.974;2023-03-18T04:36:06;-99.3;;;-146.1;100.0
45864;BME280;31579;52.354;16.974;2023-03-18T04:37:09;-99.0;;;-146.1;100.0
45864;BME280;31579;52.354;16.974;2023-03-18T04:38:12;-98.7;;;-146.1;100.0
45864;BME280;31579;52.354;16.974;2023-03-18T04:39:15;-98.6;;;-146.1;100.0
45864;BME280;31579;52.354;16.974;2023-03-18T04:40:18;-99.3;;;-146.1;100.0
45864;BME280;31579;52.354;16.974;2023-03-18T04:41:21;-99.5;;;-146.1;100.0
45864;BME280;31579;52.354;16.974;2023-03-18T04:42:25;-97.7;;;-146.1;100.0
45864;BME280;31579;52.354;16.974;2023-03-18T04:43:28;-99.1;;;-146.1;100.0
45864;BME280;31579;52.354;16.974;2023-03-18T04:44:31;-99.3;;;-146.1;100.0
45864;BME280;31579;52.354;16.974;2023-03-18T04:45:34;-98.9;;;-146.1;100.0
45864;BME280;31579;52.354;16.974;2023-03-18T04:46:38;-97.1;;;-146.1;100.0
45864;BME280;31579;52.354;16.974;2023-03-18T04:47:42;-97.7;;;-146.1;100.0
45864;BME280;31579;52.354;16.974;2023-03-18T04:48:45;-97.9;;;-146.1;100.0
45864;BME280;31579;52.354;16.974;2023-03-18T04:49:48;-97.6;;;-146.1;100.0
45864;BME280;31579;52.354;16.974;2023-03-18T04:50:52;-95.3;;;-146.1;100.0
45864;BME280;31579;52.354;16.974;2023-03-18T04:51:55;-96.8;;;-146.1;100.0
45864;BME280;31579;52.354;16.974;2023-03-18T04:52:59;-94.5;;;-146.1;100.0
45864;BME280;31579;52.354;16.974;2023-03-18T04:54:03;-93.7;;;-146.1;100.0
45864;BME280;31579;52.354;16.974;2023-03-18T04:55:07;-92.8;;;-146.1;100.0
45864;BME280;31579;52.354;16.974;2023-03-18T04:56:11;-90.8;;;-146.1;100.0
45864;BME280;31579;52.354;16.974;2023-03-18T04:57:15;-89.7;;;-146.1;100.0
45864;BME280;31579;52.354;16.974;2023-03-18T04:58:19;-87.5;;;-146.1;100.0
45864;BME280;31579;52.354;16.974;2023-03-18T04:59:22;-87.9;;;-146.1;100.0
45864;BME280;31579;52.354;16.974;2023-03-18T05:00:38;-87.2;;;-146.1;100.0
45864;BME280;31579;52.354;16.974;2023-03-18T05:01:41;-87.1;;;-146.1;100.0
45864;BME280;31579;52.354;16.974;2023-03-18T05:02:44;-86.6;;;-146.1;100.0
45864;BME280;31579;52.354;16.974;2023-03-18T05:03:47;-86.1;;;-146.1;100.0
45864;BME280;31579;52.354;16.974;2023-03-18T05:04:51;-84.2;;;-146.1;100.0
45864;BME280;31579;52.354;16.974;2023-03-18T05:05:54;-85.6;;;-146.1;100.0
45864;BME280;31579;52.354;16.974;2023-03-18T05:06:58;-82.4;;;-146.1;100.0
45864;BME280;31579;52.354;16.974;2023-03-18T05:08:00;-87.1;;;-146.1;100.0
45864;BME280;31579;52.354;16.974;2023-03-18T05:09:03;-85.3;;;-146.1;100.0
45864;BME280;31579;52.354;16.974;2023-03-18T05:10:07;-84.0;;;-146.1;100.0
45864;BME280;31579;52.354;16.974;2023-03-18T05:11:09;-84.5;;;-146.1;100.0
45864;BME280;31579;52.354;16.974;2023-03-18T05:12:13;-84.5;;;-146.1;100.0
45864;BME280;31579;52.354;16.974;2023-03-18T05:13:16;-83.3;;;-146.1;100.0
45864;BME280;31579;52.354;16.974;2023-03-18T05:14:20;-83.0;;;-146.1;100.0
45864;BME280;31579;52.354;16.974;2023-03-18T05:15:24;-81.8;;;-146.1;100.0
45864;BME280;31579;52.354;16.974;2023-03-18T05:16:28;-79.2;;;-146.1;100.0
45864;BME280;31579;52.354;16.974;2023-03-18T05:17:31;-80.9;;;-146.1;100.0
45864;BME280;31579;52.354;16.974;2023-03-18T05:18:36;-78.0;;;-146.1;100.0
45864;BME280;31579;52.354;16.974;2023-03-18T05:19:41;-75.1;;;-146.1;100.0
45864;BME280;31579;52.354;16.974;2023-03-18T05:20:43;-73.0;;;-146.1;100.0
45864;BME280;31579;52.354;16.974;2023-03-18T05:21:46;-73.4;;;-146.1;100.0
45864;BME280;31579;52.354;16.974;2023-03-18T05:22:50;-70.6;;;-146.1;100.0
45864;BME280;31579;52.354;16.974;2023-03-18T05:23:54;-66.2;;;-146.1;100.0
45864;BME280;31579;52.354;16.974;2023-03-18T05:24:58;-64.9;;;-146.1;100.0
45864;BME280;31579;52.354;16.974;2023-03-18T05:26:01;-69.2;;;-146.1;100.0
45864;BME280;31579;52.354;16.974;2023-03-18T05:27:03;-64.0;;;-146.1;100.0
45864;BME280;31579;52.354;16.974;2023-03-18T05:28:07;-61.1;;;-146.1;100.0
45864;BME280;31579;52.354;16.974;2023-03-18T05:29:11;-60.2;;;-146.1;100.0
45864;BME280;31579;52.354;16.974;2023-03-18T05:30:15;-60.8;;;-146.1;100.0
45864;BME280;31579;52.354;16.974;2023-03-18T05:31:19;-60.2;;;-146.1;100.0
45864;BME280;31579;52.354;16.974;2023-03-18T05:32:23;-58.6;;;-146.1;100.0
45864;BME280;31579;52.354;16.974;2023-03-18T05:33:28;-57.7;;;-146.1;100.0
45864;BME280;31579;52.354;16.974;2023-03-18T05:34:32;-56.3;;;-146.1;100.0
45864;BME280;31579;52.354;16.974;2023-03-18T05:35:35;-57.1;;;-146.1;100.0
45864;BME280;31579;52.354;16.974;2023-03-18T05:36:52;-57.7;;;-146.1;100.0
45864;BME280;31579;52.354;16.974;2023-03-18T05:37:56;-53.4;;;-146.1;100.0
45864;BME280;31579;52.354;16.974;2023-03-18T05:39:00;-55.5;;;-146.1;100.0
45864;BME280;31579;52.354;16.974;2023-03-18T05:40:04;-52.0;;;-146.1;100.0
45864;BME280;31579;52.354;16.974;2023-03-18T05:41:08;-52.5;;;-146.1;100.0
45864;BME280;31579;52.354;16.974;2023-03-18T05:42:12;-53.3;;;-146.1;100.0
45864;BME280;31579;52.354;16.974;2023-03-18T05:43:16;-50.3;;;-146.1;100.0
45864;BME280;31579;52.354;16.974;2023-03-18T05:44:20;-51.3;;;-146.1;100.0
45864;BME280;31579;52.354;16.974;2023-03-18T05:45:23;-55.0;;;-146.1;100.0
45864;BME280;31579;52.354;16.974;2023-03-18T05:46:27;-53.7;;;-146.1;100.0
45864;BME280;31579;52.354;16.974;2023-03-18T05:47:30;-56.8;;;-146.1;100.0
45864;BME280;31579;52.354;16.974;2023-03-18T05:48:34;-53.5;;;-146.1;100.0
45864;BME280;31579;52.354;16.974;2023-03-18T05:49:38;-55.4;;;-146.1;100.0
45864;BME280;31579;52.354;16.974;2023-03-18T05:50:43;-54.5;;;-146.1;100.0
45864;BME280;31579;52.354;16.974;2023-03-18T05:51:47;-56.3;;;-146.1;100.0